Impacts METAR Board
IDs:

KDFW - Dallas-Ft Worth Intl, TX, US

Updated at: 1000 UTC 22 Apr 2018
Potential Impact None Slight Moderate High
Time 21/22Z 21/23Z 22/00Z 22/01Z 22/02Z 22/03Z 22/04Z 22/05Z 22/06Z 22/07Z 22/08Z 22/09Z 22/10Z
Temp64 63 61 62 58 54 54 55 52 52 53 53 53
Dewpt63 63 61 61 58 54 53 52 50 49 49 48 48
Altim29.88 29.87 29.90 29.91 29.96 29.99 30.03 30.04 30.03 30.03 30.03 30.04 30.04
VIS5 5 1.25 4 6 10 10 10 10 10 10 10 10
CIG18 26 13 8 3 4 11 13 12 14 16 18 22
CoverBKNBKNOVCBKNOVCOVCOVCOVCBKNOVCOVCOVCOVC
FltCatMVFRMVFRIFRIFRLIFRLIFRMVFRMVFRMVFRMVFRMVFRMVFRMVFR
WXBRBRTSRA BRBRBR----------------
WDir100701040330360340340340340340340320
WSpd5 8 11 5 17 13 14 17 16 13 12 13 10
WGst-- -- -- -- -- -- -- -- -- 21 -- 25 --
Raw hourly METARs
KDFW 212153Z 10005KT 5SM BR SCT011 BKN018 BKN250 18/17 A2988 RMK AO2 RAB09E34 SLP115 P0001 T01780172
KDFW 212253Z 07008KT 5SM BR FEW011 BKN026 BKN070CB BKN180 OVC250 17/17 A2987 RMK AO2 LTG DSNT SW AND W SLP112 OCNL LTGIC DSNT SW-W CBMAM OHD MOV E CB DSNT SW-W MOV E T01720172 $
KDFW 220005Z 01011KT 1 1/4SM TSRA BR SCT006 BKN013CB OVC085 16/16 A2990 RMK AO2 LTG DSNT SE-SW OCNL LTGICCG E-S TS E-S MOV E P0001 T01610161 $
KDFW 220053Z 04005KT 4SM BR SCT004 BKN008 BKN085 BKN250 17/16 A2991 RMK AO2 LTG DSNT SE RAE41 TSE41 SLP125 OCNL LTGIC DSNT E-S TS MOVD E CB DSNT E-S MOV E P0003 T01670161 $
KDFW 220153Z 33017KT 6SM BR OVC003 14/14 A2996 RMK AO2 SLP141 T01440144 $
KDFW 220253Z 36013KT 10SM OVC004 12/12 A2999 RMK AO2 PK WND 33026/0206 SLP152 60003 T01220122 53026 $
KDFW 220353Z 34014KT 10SM BKN011 OVC028 12/12 A3003 RMK AO2 SLP167 T01220117 $
KDFW 220453Z 34017KT 10SM BKN013 OVC030 13/11 A3004 RMK AO2 SLP167 T01280111 $
KDFW 220605Z 34016KT 10SM BKN012 BKN036 11/10 A3003 RMK AO2 T01110100 $
KDFW 220653Z 34013G21KT 10SM OVC014 11/09 A3003 RMK AO2 SLP166 T01110094 $
KDFW 220753Z 34012KT 10SM OVC016 12/09 A3003 RMK AO2 SLP165 T01170094 $
KDFW 220853Z 34013G25KT 10SM OVC018 12/09 A3004 RMK AO2 SLP168 T01170089 51007 $
KDFW 220953Z 32010KT 10SM FEW015 OVC022 12/09 A3004 RMK AO2 SLP169 T01170089 $



Page loaded:  10:54 UTC  |   03:54 AM Pacific  |   04:54 AM Mountain  |   05:54 AM Central  |   06:54 AM Eastern

 

ADVISORIES

FORECASTS

FORECASTS

OBSERVATIONS

USER TOOLS

ABOUT US